Belpre, Kansas
Current Conditions -  °F | °C
As of 8:55 AM on Monday 29 Dec 2014 (Local Time) from KPTT Reporting Station
Overcast Overcast  
Wind Chill: 16°   Ceiling: 4900
Heat Index: 23°   Visibility: 10mi
Dew Point: 19°   Wind: 6mph
Humidity: 86%   Direction: 50°NE
Pressure: 30.19"   Gusts: NA
Location:  37.95°N, 99.1°W
Report Text: KPTT 291455Z AUTO 05005KT 10SM OVC049 M05/M07 A3019 RMK AO2
Loading
Personal Weather Stations






























Interactive Weather Map New forecast layout! Learn more

10-Day Weather Forecast

Advertisements
Track Severe Weather on mobile